createdAt,value
2018-07-08T00:01:04.177Z,20.40
2018-07-08T00:03:32.386Z,19.80
2018-07-08T00:06:00.643Z,19.40
2018-07-08T00:08:28.858Z,20.40
2018-07-08T00:10:58.316Z,20.50
2018-07-08T00:13:26.509Z,19.40
2018-07-08T00:15:54.657Z,19.87
2018-07-08T00:18:23.803Z,20.33
2018-07-08T00:20:53.077Z,20.63
2018-07-08T00:23:21.870Z,20.17
2018-07-08T00:25:50.088Z,19.33
2018-07-08T00:28:18.399Z,20.33
2018-07-08T00:30:46.697Z,20.13
2018-07-08T00:33:14.909Z,19.23
2018-07-08T00:35:43.124Z,36.40
2018-07-08T00:38:11.330Z,24.63
2018-07-08T00:40:39.499Z,21.33
2018-07-08T00:43:07.686Z,21.07
2018-07-08T00:45:35.878Z,21.07
2018-07-08T00:48:04.052Z,20.80
2018-07-08T00:50:32.330Z,20.80
2018-07-08T00:53:00.513Z,20.20
2018-07-08T00:55:29.305Z,19.90
2018-07-08T00:57:57.676Z,19.80
2018-07-08T01:00:33.506Z,21.27
2018-07-08T01:03:03.011Z,21.97
2018-07-08T01:05:42.564Z,21.40
2018-07-08T01:13:57.945Z,19.70
2018-07-08T01:16:30.258Z,20.40
2018-07-08T01:22:20.740Z,20.40
2018-07-08T01:25:17.198Z,20.10
2018-07-08T01:27:52.267Z,20.73
2018-07-08T01:31:39.964Z,20.90
2018-07-08T01:34:40.605Z,19.60
2018-07-08T01:40:02.234Z,20.50
2018-07-08T01:42:31.353Z,21.30
2018-07-08T01:45:21.816Z,21.00
2018-07-08T01:58:23.785Z,22.70
2018-07-08T02:07:22.767Z,21.47
2018-07-08T02:09:54.239Z,20.87
2018-07-08T02:12:23.128Z,21.50
2018-07-08T02:14:52.038Z,20.57
2018-07-08T02:17:20.952Z,22.13
2018-07-08T02:19:50.376Z,21.27
2018-07-08T02:22:18.652Z,20.97
2018-07-08T02:24:46.819Z,20.20
2018-07-08T02:27:15.024Z,20.00
2018-07-08T02:29:43.172Z,21.40
2018-07-08T02:32:11.368Z,20.70
2018-07-08T02:34:39.569Z,20.23
2018-07-08T02:37:07.714Z,22.03
2018-07-08T02:39:36.203Z,21.37
2018-07-08T02:42:04.345Z,21.20
2018-07-08T02:44:32.622Z,22.30
2018-07-08T02:47:00.775Z,20.70
2018-07-08T02:49:28.944Z,20.97
2018-07-08T02:51:57.458Z,21.23
2018-07-08T02:54:25.731Z,19.40
2018-07-08T02:56:53.894Z,20.23
2018-07-08T02:59:22.050Z,20.07
2018-07-08T03:01:50.193Z,21.03
2018-07-08T03:04:18.373Z,20.00
2018-07-08T03:06:46.532Z,22.20
2018-07-08T03:09:14.821Z,19.80
2018-07-08T03:11:42.989Z,21.20
2018-07-08T03:14:11.201Z,20.63
2018-07-08T03:16:39.421Z,18.90
2018-07-08T03:19:07.602Z,21.27
2018-07-08T03:21:35.777Z,19.60
2018-07-08T03:24:04.015Z,19.97
2018-07-08T03:26:32.211Z,19.80
2018-07-08T03:29:00.404Z,20.40
2018-07-08T03:31:28.606Z,21.10
2018-07-08T03:33:56.785Z,20.60
2018-07-08T03:36:24.957Z,20.00
2018-07-08T03:38:53.128Z,20.60
2018-07-08T03:41:21.330Z,20.73
2018-07-08T03:43:49.507Z,21.03
2018-07-08T03:46:17.636Z,20.00
2018-07-08T03:48:45.784Z,20.27
2018-07-08T03:51:13.974Z,19.47
2018-07-08T03:53:42.157Z,18.73
2018-07-08T03:56:10.351Z,21.20
2018-07-08T03:58:38.528Z,19.80
2018-07-08T04:01:06.764Z,19.90
2018-07-08T04:03:34.934Z,20.30
2018-07-08T04:06:03.122Z,21.67
2018-07-08T04:08:31.265Z,19.20
2018-07-08T04:10:59.401Z,18.50
2018-07-08T04:13:27.545Z,19.67
2018-07-08T04:15:55.701Z,19.70
2018-07-08T04:18:23.857Z,19.07
2018-07-08T04:20:52.050Z,19.17
2018-07-08T04:23:20.234Z,21.10
2018-07-08T04:25:48.379Z,19.23
2018-07-08T04:28:16.618Z,19.27
2018-07-08T04:30:44.861Z,19.93
2018-07-08T04:33:13.112Z,19.23
2018-07-08T04:35:41.335Z,19.07
2018-07-08T04:38:09.562Z,17.90
2018-07-08T04:40:37.739Z,17.27
2018-07-08T04:43:05.905Z,17.70
2018-07-08T04:45:34.089Z,17.80
2018-07-08T04:48:02.274Z,18.10
2018-07-08T04:50:30.443Z,17.50
2018-07-08T04:52:58.614Z,17.50
2018-07-08T04:55:26.510Z,18.27
2018-07-08T04:57:54.665Z,18.13
2018-07-08T05:00:22.813Z,18.10
2018-07-08T05:02:50.990Z,18.00
2018-07-08T05:05:19.160Z,18.80
2018-07-08T05:07:47.334Z,18.37
2018-07-08T05:10:15.236Z,18.27
2018-07-08T05:12:43.401Z,18.20
2018-07-08T05:15:11.546Z,18.97
2018-07-08T05:17:40.069Z,19.73
2018-07-08T05:20:08.239Z,19.43
2018-07-08T05:22:36.390Z,18.70
2018-07-08T05:25:04.668Z,19.53
2018-07-08T05:27:32.842Z,18.73
2018-07-08T05:30:00.990Z,18.60
2018-07-08T05:32:29.231Z,19.70
2018-07-08T05:34:57.339Z,19.40
2018-07-08T05:37:25.477Z,19.77
2018-07-08T05:39:53.689Z,21.03
2018-07-08T05:42:21.839Z,20.30
2018-07-08T05:44:49.978Z,20.80
2018-07-08T05:47:18.132Z,19.13
2018-07-08T05:49:46.317Z,20.53
2018-07-08T05:52:14.530Z,20.93
2018-07-08T05:54:42.710Z,19.93
2018-07-08T05:57:10.914Z,20.30
2018-07-08T05:59:39.090Z,18.77
2018-07-08T06:02:07.390Z,19.57
2018-07-08T06:04:35.630Z,19.40
2018-07-08T06:07:03.737Z,18.87
2018-07-08T06:09:31.953Z,18.23
2018-07-08T06:12:00.167Z,18.57
2018-07-08T06:14:29.022Z,18.63
2018-07-08T06:16:58.280Z,17.50
2018-07-08T06:19:26.373Z,17.43
2018-07-08T06:21:54.605Z,18.00
2018-07-08T06:24:23.071Z,16.20
2018-07-08T06:26:51.319Z,16.17
2018-07-08T06:29:19.483Z,16.27
2018-07-08T06:31:47.696Z,16.20
2018-07-08T06:34:15.870Z,16.20
2018-07-08T06:36:44.063Z,16.20
2018-07-08T06:39:13.483Z,15.40
2018-07-08T06:41:41.739Z,13.70
2018-07-08T06:44:10.026Z,13.23
2018-07-08T06:46:38.190Z,14.00
2018-07-08T06:49:06.378Z,13.43
2018-07-08T06:51:34.558Z,11.90
2018-07-08T06:54:02.760Z,13.00
2018-07-08T06:56:30.975Z,9.80
2018-07-08T06:58:59.106Z,9.80
2018-07-08T07:01:27.320Z,10.40
2018-07-08T07:03:56.818Z,11.20
2018-07-08T07:06:24.995Z,11.50
2018-07-08T07:08:54.111Z,12.27
2018-07-08T07:17:06.550Z,10.90
2018-07-08T07:19:34.721Z,12.17
2018-07-08T07:22:02.821Z,10.47
2018-07-08T07:24:30.977Z,9.90
2018-07-08T07:26:59.240Z,12.03
2018-07-08T07:29:27.380Z,10.60
2018-07-08T07:31:55.776Z,10.13
2018-07-08T07:34:23.898Z,9.87
2018-07-08T07:36:52.021Z,10.40
2018-07-08T07:39:20.147Z,10.53
2018-07-08T07:41:48.295Z,10.90
2018-07-08T07:44:16.423Z,9.47
2018-07-08T07:46:44.361Z,8.70
2018-07-08T07:49:12.562Z,9.63
2018-07-08T07:51:40.700Z,9.77
2018-07-08T07:54:08.872Z,10.40
2018-07-08T07:56:36.774Z,9.20
2018-07-08T07:59:05.039Z,9.93
2018-07-08T08:01:33.120Z,10.90
2018-07-08T08:04:01.250Z,9.30
2018-07-08T08:06:29.385Z,9.43
2018-07-08T08:08:57.502Z,9.77
2018-07-08T08:11:25.652Z,9.50
2018-07-08T08:14:00.958Z,9.50
2018-07-08T08:16:29.392Z,9.07
2018-07-08T08:18:57.735Z,9.10
2018-07-08T08:21:26.353Z,10.57
2018-07-08T08:23:55.362Z,11.57
2018-07-08T08:26:23.519Z,9.10
2018-07-08T08:28:51.637Z,8.67
2018-07-08T08:31:20.038Z,8.47
2018-07-08T08:35:06.031Z,7.43
2018-07-08T08:37:36.363Z,5.70
2018-07-08T08:40:05.042Z,6.13
2018-07-08T08:42:33.161Z,6.13
2018-07-08T08:45:01.674Z,5.97
2018-07-08T08:47:31.054Z,6.03
2018-07-08T08:49:59.232Z,5.53
2018-07-08T08:52:27.381Z,5.10
2018-07-08T08:54:55.931Z,4.90
2018-07-08T08:57:24.081Z,5.30
2018-07-08T08:59:52.198Z,5.20
2018-07-08T09:02:20.367Z,5.47
2018-07-08T09:04:48.527Z,6.70
2018-07-08T09:07:18.110Z,5.67
2018-07-08T09:09:47.013Z,5.40
2018-07-08T09:12:15.398Z,5.53
2018-07-08T09:14:44.365Z,6.23
2018-07-08T09:17:12.943Z,5.10
2018-07-08T09:19:41.122Z,4.50
2018-07-08T09:22:09.594Z,5.20
2018-07-08T09:24:37.714Z,5.50
2018-07-08T09:27:05.951Z,5.70
2018-07-08T09:29:34.059Z,5.47
2018-07-08T09:32:02.906Z,4.43
2018-07-08T09:34:31.089Z,5.30
2018-07-08T09:36:59.294Z,5.90
2018-07-08T09:39:27.422Z,4.70
2018-07-08T09:41:55.541Z,4.87
2018-07-08T09:44:23.724Z,5.07
2018-07-08T09:46:51.885Z,5.20
2018-07-08T09:49:20.282Z,14.00
2018-07-08T09:51:48.760Z,9.67
2018-07-08T09:54:16.905Z,4.53
2018-07-08T09:56:45.446Z,4.37
2018-07-08T09:59:13.574Z,4.67
2018-07-08T10:01:43.637Z,5.53
2018-07-08T10:04:14.068Z,5.57
2018-07-08T10:06:43.001Z,4.47
2018-07-08T10:09:12.490Z,4.63
2018-07-08T10:11:40.658Z,4.53
2018-07-08T10:14:10.570Z,4.37
2018-07-08T10:16:39.077Z,4.53
2018-07-08T10:19:08.711Z,4.57
2018-07-08T10:21:36.856Z,4.53
2018-07-08T10:24:04.950Z,4.80
2018-07-08T10:26:33.259Z,4.50
2018-07-08T10:29:01.398Z,4.77
2018-07-08T10:31:40.953Z,4.50
2018-07-08T10:34:08.917Z,4.23
2018-07-08T10:36:37.718Z,4.43
2018-07-08T10:39:07.072Z,4.10
2018-07-08T10:41:35.258Z,4.23
2018-07-08T10:44:03.969Z,4.60
2018-07-08T10:46:32.100Z,4.80
2018-07-08T10:49:00.202Z,4.90
2018-07-08T10:51:28.373Z,3.80
2018-07-08T10:53:56.484Z,4.90
2018-07-08T10:56:24.642Z,4.60
2018-07-08T10:58:52.765Z,4.63
2018-07-08T11:01:20.905Z,4.20
2018-07-08T11:03:49.061Z,4.00
2018-07-08T11:06:17.153Z,4.23
2018-07-08T11:08:45.308Z,5.50
2018-07-08T11:11:13.450Z,4.40
2018-07-08T11:13:41.583Z,4.10
2018-07-08T11:16:10.888Z,4.30
2018-07-08T11:18:39.113Z,3.40
2018-07-08T11:21:07.229Z,4.27
2018-07-08T11:23:35.359Z,4.30
2018-07-08T11:26:03.477Z,4.50
2018-07-08T11:28:31.657Z,4.63
2018-07-08T11:30:59.777Z,4.03
2018-07-08T11:33:27.869Z,4.10
2018-07-08T11:35:55.958Z,4.20
2018-07-08T11:38:24.077Z,4.53
2018-07-08T11:40:52.189Z,4.47
2018-07-08T11:43:20.388Z,4.03
2018-07-08T11:45:48.503Z,4.00
2018-07-08T11:48:16.654Z,4.47
2018-07-08T11:50:44.827Z,3.93
2018-07-08T11:53:12.958Z,4.70
2018-07-08T11:55:40.918Z,4.27
2018-07-08T11:58:09.057Z,4.33
2018-07-08T12:00:37.164Z,4.50
2018-07-08T12:03:05.305Z,4.27
2018-07-08T12:05:33.429Z,4.40
2018-07-08T12:08:01.533Z,4.17
2018-07-08T12:10:29.685Z,4.47
2018-07-08T12:12:57.858Z,4.10
2018-07-08T12:15:27.074Z,3.83
2018-07-08T12:17:55.253Z,4.07
2018-07-08T12:20:23.975Z,4.33
2018-07-08T12:22:52.119Z,4.40
2018-07-08T12:25:20.365Z,4.47
2018-07-08T12:27:48.508Z,3.70
2018-07-08T12:30:16.624Z,3.40
2018-07-08T12:32:45.763Z,4.40
2018-07-08T12:35:13.971Z,3.90
2018-07-08T12:37:42.146Z,3.40
2018-07-08T12:40:10.312Z,4.17
2018-07-08T12:42:38.413Z,4.13
2018-07-08T12:45:06.594Z,8.97
2018-07-08T12:47:34.751Z,4.63
2018-07-08T12:50:02.911Z,4.40
2018-07-08T12:52:31.486Z,4.30
2018-07-08T12:55:00.195Z,3.90
2018-07-08T12:57:28.343Z,4.07
2018-07-08T12:59:56.510Z,3.83
2018-07-08T13:02:24.659Z,4.00
2018-07-08T13:04:52.786Z,3.90
2018-07-08T13:07:20.987Z,3.70
2018-07-08T13:09:49.107Z,3.47
2018-07-08T13:12:17.235Z,4.70
2018-07-08T13:14:45.397Z,3.80
2018-07-08T13:17:14.628Z,3.70
2018-07-08T13:19:42.872Z,4.30
2018-07-08T13:22:11.059Z,3.80
2018-07-08T13:24:39.696Z,3.77
2018-07-08T13:27:07.934Z,3.87
2018-07-08T13:29:36.085Z,3.63
2018-07-08T13:32:04.265Z,3.50
2018-07-08T13:34:32.346Z,3.60
2018-07-08T13:37:00.485Z,3.90
2018-07-08T13:39:28.610Z,3.80
2018-07-08T13:41:56.774Z,3.80
2018-07-08T13:44:24.903Z,3.67
2018-07-08T13:46:53.104Z,3.53
2018-07-08T13:49:21.932Z,3.37
2018-07-08T13:51:50.046Z,4.00
2018-07-08T13:54:18.205Z,3.53
2018-07-08T13:56:49.397Z,3.97
2018-07-08T13:59:17.517Z,2.97
2018-07-08T14:01:45.443Z,3.60
2018-07-08T14:04:13.578Z,3.63
2018-07-08T14:06:41.780Z,3.53
2018-07-08T14:09:09.928Z,4.10
2018-07-08T14:11:38.349Z,4.07
2018-07-08T14:14:06.453Z,3.53
2018-07-08T14:16:35.287Z,5.90
2018-07-08T14:19:03.409Z,6.17
2018-07-08T14:21:31.524Z,6.37
2018-07-08T14:23:59.682Z,4.03
2018-07-08T14:26:27.859Z,4.17
2018-07-08T14:28:55.961Z,4.30
2018-07-08T14:31:24.085Z,4.00
2018-07-08T14:33:52.226Z,3.70
2018-07-08T14:36:21.298Z,3.90
2018-07-08T14:38:49.432Z,4.27
2018-07-08T14:41:17.594Z,4.00
2018-07-08T14:43:45.806Z,3.70
2018-07-08T14:46:13.989Z,3.77
2018-07-08T14:48:42.204Z,4.10
2018-07-08T14:51:10.394Z,4.23
2018-07-08T14:53:38.522Z,4.50
2018-07-08T14:56:06.687Z,4.00
2018-07-08T14:58:35.686Z,4.07
2018-07-08T15:01:03.806Z,3.30
2018-07-08T15:03:31.946Z,3.97
2018-07-08T15:06:00.096Z,4.30
2018-07-08T15:08:28.421Z,4.23
2018-07-08T15:10:56.584Z,4.27
2018-07-08T15:13:24.722Z,4.20
2018-07-08T15:15:52.955Z,4.67
2018-07-08T15:18:21.050Z,4.03
2018-07-08T15:20:49.176Z,4.20
2018-07-08T15:23:17.314Z,4.30
2018-07-08T15:25:45.458Z,4.23
2018-07-08T15:28:13.614Z,3.83
2018-07-08T15:30:41.804Z,3.57
2018-07-08T15:33:10.206Z,3.97
2018-07-08T15:35:38.747Z,4.20
2018-07-08T15:38:07.069Z,4.10
2018-07-08T15:40:36.062Z,4.30
2018-07-08T15:43:04.211Z,3.90
2018-07-08T15:45:32.364Z,4.13
2018-07-08T15:48:00.907Z,3.40
2018-07-08T15:50:29.099Z,3.57
2018-07-08T15:53:00.921Z,4.27
2018-07-08T15:55:29.076Z,4.40
2018-07-08T15:57:57.178Z,3.70
2018-07-08T16:00:25.321Z,3.80
2018-07-08T16:02:53.898Z,3.87
2018-07-08T16:05:22.022Z,4.50
2018-07-08T16:07:50.149Z,5.63
2018-07-08T16:10:18.316Z,6.10
2018-07-08T16:12:48.304Z,4.30
2018-07-08T16:15:16.880Z,6.03
2018-07-08T16:17:45.043Z,5.93
2018-07-08T16:20:14.324Z,4.37
2018-07-08T16:22:42.468Z,3.83
2018-07-08T16:25:10.677Z,4.90
2018-07-08T16:27:39.834Z,4.10
2018-07-08T16:30:08.531Z,3.30
2018-07-08T16:32:36.683Z,4.03
2018-07-08T16:35:04.817Z,3.60
2018-07-08T16:37:32.955Z,3.80
2018-07-08T16:40:02.155Z,4.23
2018-07-08T16:42:30.888Z,4.07
2018-07-08T16:44:59.022Z,3.47
2018-07-08T16:47:29.125Z,4.00
2018-07-08T16:49:57.846Z,3.83
2018-07-08T16:52:40.704Z,3.93
2018-07-08T16:55:08.939Z,3.80
2018-07-08T17:08:28.325Z,4.50
2018-07-08T17:17:01.559Z,4.37
2018-07-08T17:19:30.104Z,4.03
2018-07-08T17:22:16.456Z,4.40
2018-07-08T17:25:45.661Z,5.73
2018-07-08T17:28:52.984Z,4.30
2018-07-08T17:31:21.129Z,4.60
2018-07-08T17:33:49.290Z,3.80
2018-07-08T17:36:17.482Z,3.40
2018-07-08T17:38:45.729Z,3.33
2018-07-08T17:41:13.892Z,6.97
2018-07-08T17:43:42.121Z,4.80
2018-07-08T17:46:10.335Z,4.17
2018-07-08T17:48:38.616Z,3.40
2018-07-08T17:51:06.763Z,2.90
2018-07-08T17:53:34.923Z,3.60
2018-07-08T17:56:04.378Z,3.03
2018-07-08T17:58:32.535Z,3.00
2018-07-08T18:01:00.700Z,4.80
2018-07-08T18:03:28.825Z,3.60
2018-07-08T18:05:56.986Z,3.30
2018-07-08T18:08:25.160Z,3.20
2018-07-08T18:10:53.368Z,3.30
2018-07-08T18:13:21.610Z,2.40
2018-07-08T18:15:49.608Z,3.37
2018-07-08T18:18:17.833Z,3.87
2018-07-08T18:20:48.161Z,3.40
2018-07-08T18:29:07.721Z,4.20
2018-07-08T18:31:35.931Z,5.40
2018-07-08T18:49:34.328Z,8.20
2018-07-08T18:52:06.282Z,3.20
2018-07-08T18:56:45.853Z,3.07
2018-07-08T18:59:14.251Z,3.87
2018-07-08T19:02:06.071Z,3.00
2018-07-08T19:16:50.745Z,4.97
2018-07-08T19:19:29.307Z,7.23
2018-07-08T19:21:57.482Z,6.17
2018-07-08T19:24:25.733Z,5.47
2018-07-08T19:26:55.608Z,6.23
2018-07-08T19:29:43.321Z,6.63
2018-07-08T19:32:18.304Z,6.77
2018-07-08T19:34:46.465Z,6.90
2018-07-08T19:37:14.714Z,4.93
2018-07-08T19:39:43.291Z,4.90
2018-07-08T19:42:11.976Z,3.60
2018-07-08T19:44:40.358Z,12.20
2018-07-08T19:47:13.480Z,6.07
2018-07-08T19:49:43.682Z,6.73
2018-07-08T19:52:12.159Z,5.60
2018-07-08T19:54:41.823Z,4.87
2018-07-08T19:57:14.013Z,5.00
2018-07-08T19:59:43.532Z,4.80
2018-07-08T20:02:11.740Z,5.30
2018-07-08T20:04:40.141Z,4.50
2018-07-08T20:07:09.515Z,5.47
2018-07-08T20:09:37.666Z,5.33
2018-07-08T20:12:06.894Z,5.43
2018-07-08T20:14:38.179Z,8.13
2018-07-08T20:17:09.941Z,6.10
2018-07-08T20:27:05.846Z,3.77
2018-07-08T20:29:34.872Z,3.73
2018-07-08T20:32:03.136Z,4.27
2018-07-08T20:34:31.272Z,5.03
2018-07-08T20:36:59.436Z,4.60
2018-07-08T20:39:27.620Z,4.20
2018-07-08T20:41:55.786Z,4.17
2018-07-08T20:44:23.942Z,4.17
2018-07-08T20:47:01.014Z,3.80
2018-07-08T20:49:29.457Z,3.80
2018-07-08T20:57:43.958Z,3.53
2018-07-08T21:00:13.695Z,2.73
2018-07-08T21:02:42.703Z,3.10
2018-07-08T21:05:11.038Z,2.80
2018-07-08T21:07:39.265Z,3.00
2018-07-08T21:10:08.567Z,3.30
2018-07-08T21:12:36.708Z,3.00
2018-07-08T21:15:05.889Z,3.07
2018-07-08T21:20:33.653Z,3.33
2018-07-08T21:23:02.511Z,3.10
2018-07-08T21:25:30.776Z,3.60
2018-07-08T21:28:05.058Z,3.60
2018-07-08T21:30:33.212Z,4.00
2018-07-08T21:33:01.470Z,5.03
2018-07-08T21:35:29.693Z,4.73
2018-07-08T21:37:57.802Z,5.90
2018-07-08T21:40:25.943Z,4.93
2018-07-08T21:43:12.210Z,4.10
2018-07-08T21:45:40.406Z,4.50
2018-07-08T21:48:08.536Z,3.60
2018-07-08T21:50:36.657Z,3.30
2018-07-08T21:53:04.806Z,3.10
2018-07-08T21:55:32.959Z,3.30
2018-07-08T21:58:01.087Z,2.97
2018-07-08T22:00:31.106Z,3.10
2018-07-08T22:02:59.400Z,3.17
2018-07-08T22:05:28.383Z,3.30
2018-07-08T22:08:02.917Z,3.50
2018-07-08T22:10:31.461Z,4.27
2018-07-08T22:13:00.838Z,3.90
2018-07-08T22:15:29.032Z,3.53
2018-07-08T22:17:57.543Z,3.40
2018-07-08T22:20:27.301Z,4.03
2018-07-08T22:22:55.495Z,3.77
2018-07-08T22:25:23.690Z,3.90
2018-07-08T22:27:51.889Z,3.50
2018-07-08T22:30:20.066Z,3.63
2018-07-08T22:32:48.266Z,3.30
2018-07-08T22:35:16.496Z,3.77
2018-07-08T22:40:43.972Z,3.77
2018-07-08T22:43:12.166Z,3.60
2018-07-08T22:45:40.884Z,4.10
2018-07-08T22:48:09.994Z,3.80
2018-07-08T22:50:41.522Z,3.53
2018-07-08T22:53:09.689Z,3.70
2018-07-08T22:55:37.797Z,4.30
2018-07-08T22:58:06.134Z,3.20
2018-07-08T23:00:45.662Z,3.73
2018-07-08T23:03:53.723Z,3.60
2018-07-08T23:06:21.842Z,3.40
2018-07-08T23:08:56.713Z,4.03
2018-07-08T23:11:25.489Z,3.77
2018-07-08T23:13:54.691Z,3.80
2018-07-08T23:16:23.413Z,3.50
2018-07-08T23:18:52.171Z,3.57
2018-07-08T23:21:20.354Z,3.33
2018-07-08T23:23:48.505Z,3.60
2018-07-08T23:26:16.641Z,3.73
2018-07-08T23:28:44.826Z,3.17
2018-07-08T23:31:13.301Z,3.53
2018-07-08T23:33:41.504Z,3.50
2018-07-08T23:36:10.192Z,3.70
2018-07-08T23:38:38.382Z,3.50
2018-07-08T23:41:07.663Z,4.27
2018-07-08T23:43:35.816Z,3.83
2018-07-08T23:46:04.266Z,3.17
2018-07-08T23:48:32.848Z,3.63
2018-07-08T23:51:00.974Z,3.83
2018-07-08T23:53:29.278Z,3.93
2018-07-08T23:55:57.436Z,3.40
2018-07-08T23:58:25.583Z,3.03
